Detall de PIREP

Printer-friendly versionPDF version

[2014/10/09 15:43:00]
Flight IATA:CT3120
Pilot Number:042
Company ICAO:CAT
Aircraft Type:F100/A
PAX:14
Aircraft Registration:PFJ
Departing Airport: LEPA
Destination Airport: LEVC
Alternate Airport:LEBL
Online: VATSIM
Route:EPAMA A33 ARGOR
Flight Level:F190
No Slew and time accel
No pause
Crash detect
Detect pilot in Cockpit between each 30 and 45 minutes
15:43 Zero fuel Weight: 81826 Lbs, Fuel Weight: 22674 Lbs
15:43 VATSIM:LEPA 091530Z 21008KT 180V260 CAVOK 26/21 Q1012 NOSIG
15:43 VATSIM:LEVC 091530Z 15008KT 110V230 9999 FEW020 29/16 Q1010 NOSIG
15:44 Parking Brakes off
15:47 Take-off
15:47 Take off Weight: 104096 Lbs
15:47 Wind: 000º @ 000 Knots Heading: 238º
15:47 POS N39º 33´ 06´´ E002º 43´ 14´´
15:47 Gear Up: 181 Knots
15:47 Flaps:2 at 181 Knots
15:48 Flaps:1 at 183 Knots
15:48 Flaps:0 at 198 Knots
15:55 TOC
15:55 Fuel Weight: 20923 Lb
16:01 TOD
16:01 Fuel Weight: 20347 Lb
16:02 Wind:270º@024 Knots Heading: 266º Ground Speed: 372 Knots Altitude 18339 ft
16:12 Flaps:1 at 208 Knots
16:16 Gear Down: 175 Knots
16:16 Flaps:2 at 175 Knots
16:16 Flaps:3 at 175 Knots
16:17 Wind:000º@000 Knots Heading: 300º Ground Speed: 177 Knots Altitude 2887 ft
16:20 TouchDown:Rate -242 ft/min Speed: 150 Knots
16:20 VATSIM:LEVC 091600Z 14009KT 9999 FEW020 28/16 Q1010 NOSIG
16:20 Land
16:20 Wind:000º@000 Knots
16:20 Heading: 298º
16:20 Flight Duration: 00:33
16:20 Landing Weight: 101292 Lbs
16:20 POS N39º 29´ 25´´ W000º 29´ 04´´
16:22 Parking brakes on
16:22 Block to Block Duration: 00:38
16:22 Final Fuel: 19360 Lbls
16:22 Spent Fuel: 3313 Lbls
16:22 Flight Length: 153 NM
16:22 TOD Land Length: 77 NM

Exportar CSV

Powered by Drupal - Modified by Danger4k